createdAt,value
2023-01-08T00:02:02.316Z,77.57
2023-01-08T00:04:24.972Z,75.22
2023-01-08T00:06:47.602Z,86.50
2023-01-08T00:09:13.452Z,88.65
2023-01-08T00:11:36.170Z,85.88
2023-01-08T00:13:58.861Z,90.43
2023-01-08T00:16:21.561Z,88.00
2023-01-08T00:18:45.590Z,82.72
2023-01-08T00:21:08.187Z,79.82
2023-01-08T00:23:31.041Z,85.55
2023-01-08T00:25:53.643Z,87.40
2023-01-08T00:28:17.085Z,80.13
2023-01-08T00:30:39.795Z,77.75
2023-01-08T00:33:02.742Z,81.75
2023-01-08T00:35:25.475Z,74.72
2023-01-08T00:37:51.961Z,74.80
2023-01-08T00:40:14.774Z,82.07
2023-01-08T00:42:37.425Z,73.45
2023-01-08T00:45:00.065Z,82.03
2023-01-08T00:47:22.789Z,72.72
2023-01-08T00:49:45.486Z,76.87
2023-01-08T00:52:08.136Z,80.57
2023-01-08T00:54:30.724Z,67.35
2023-01-08T00:56:55.631Z,71.05
2023-01-08T00:59:18.239Z,74.38
2023-01-08T01:01:40.982Z,71.87
2023-01-08T01:04:04.148Z,72.57
2023-01-08T01:06:26.756Z,63.88
2023-01-08T01:08:49.362Z,72.63
2023-01-08T01:11:19.564Z,74.50
2023-01-08T01:13:42.091Z,73.37
2023-01-08T01:16:05.191Z,69.50
2023-01-08T01:18:28.412Z,69.75
2023-01-08T01:20:51.565Z,70.75
2023-01-08T01:23:14.162Z,81.18
2023-01-08T01:25:38.174Z,69.33
2023-01-08T01:28:00.727Z,74.40
2023-01-08T01:30:23.317Z,68.65
2023-01-08T01:32:45.982Z,66.60
2023-01-08T01:35:08.869Z,67.05
2023-01-08T01:37:31.798Z,66.97
2023-01-08T01:39:56.363Z,67.90
2023-01-08T01:42:55.499Z,60.75
2023-01-08T01:45:23.116Z,68.10
2023-01-08T01:48:01.084Z,66.40
2023-01-08T01:50:30.607Z,62.20
2023-01-08T01:52:59.240Z,65.55
2023-01-08T01:55:21.979Z,65.22
2023-01-08T01:57:55.026Z,68.05
2023-01-08T02:00:18.905Z,64.85
2023-01-08T02:02:41.587Z,67.03
2023-01-08T02:05:04.617Z,62.83
2023-01-08T02:07:30.283Z,66.13
2023-01-08T02:10:19.713Z,62.45
2023-01-08T02:12:47.128Z,62.35
2023-01-08T02:15:25.220Z,68.60
2023-01-08T02:18:09.012Z,67.50
2023-01-08T02:20:40.956Z,65.60
2023-01-08T02:23:21.824Z,64.03
2023-01-08T02:26:03.092Z,73.22
2023-01-08T02:28:26.599Z,66.30
2023-01-08T02:30:49.781Z,66.88
2023-01-08T02:33:12.654Z,68.40
2023-01-08T02:35:40.780Z,63.55
2023-01-08T02:38:04.278Z,69.28
2023-01-08T02:40:27.115Z,60.40
2023-01-08T02:42:57.605Z,64.60
2023-01-08T02:45:50.191Z,61.58
2023-01-08T02:48:14.519Z,59.53
2023-01-08T02:50:59.197Z,63.28
2023-01-08T02:53:29.478Z,63.43
2023-01-08T02:55:57.668Z,58.67
2023-01-08T02:58:23.510Z,70.05
2023-01-08T03:00:47.398Z,64.18
2023-01-08T03:03:14.807Z,64.30
2023-01-08T03:05:40.983Z,69.27
2023-01-08T03:08:04.058Z,71.93
2023-01-08T03:10:30.268Z,67.43
2023-01-08T03:13:05.853Z,63.40
2023-01-08T03:15:45.982Z,65.55
2023-01-08T03:18:14.004Z,66.70
2023-01-08T03:20:38.612Z,62.63
2023-01-08T03:23:07.687Z,66.38
2023-01-08T03:25:31.036Z,68.40
2023-01-08T03:28:04.015Z,68.15
2023-01-08T03:30:29.904Z,63.13
2023-01-08T03:32:55.765Z,69.07
2023-01-08T03:35:22.300Z,69.18
2023-01-08T03:37:49.443Z,68.13
2023-01-08T03:40:19.592Z,62.80
2023-01-08T03:42:42.512Z,63.40
2023-01-08T03:45:06.297Z,66.93
2023-01-08T03:47:33.296Z,68.43
2023-01-08T03:49:58.155Z,67.68
2023-01-08T03:52:25.811Z,67.13
2023-01-08T03:54:48.385Z,69.53
2023-01-08T03:57:10.957Z,67.35
2023-01-08T03:59:33.511Z,75.30
2023-01-08T04:01:56.703Z,74.72
2023-01-08T04:04:19.567Z,67.57
2023-01-08T04:06:42.325Z,68.77
2023-01-08T04:09:05.176Z,66.25
2023-01-08T04:11:27.903Z,66.85
2023-01-08T04:13:50.497Z,67.53
2023-01-08T04:16:13.214Z,69.68
2023-01-08T04:18:36.035Z,73.07
2023-01-08T04:20:58.586Z,68.13
2023-01-08T04:23:21.233Z,72.03
2023-01-08T04:25:43.816Z,75.22
2023-01-08T04:28:06.392Z,73.15
2023-01-08T04:30:29.078Z,74.67
2023-01-08T04:32:51.643Z,76.70
2023-01-08T04:35:14.247Z,75.43
2023-01-08T04:37:37.071Z,69.38
2023-01-08T04:39:59.651Z,71.30
2023-01-08T04:42:22.315Z,69.53
2023-01-08T04:44:45.026Z,73.53
2023-01-08T04:47:07.649Z,76.38
2023-01-08T04:49:30.367Z,70.35
2023-01-08T04:51:52.932Z,70.53
2023-01-08T04:54:15.636Z,75.37
2023-01-08T04:56:38.257Z,78.43
2023-01-08T04:59:01.011Z,70.25
2023-01-08T05:01:26.225Z,79.20
2023-01-08T05:03:52.944Z,75.97
2023-01-08T05:06:15.515Z,74.03
2023-01-08T05:08:38.364Z,73.18
2023-01-08T05:11:02.605Z,70.68
2023-01-08T05:13:25.239Z,73.93
2023-01-08T05:15:47.922Z,81.07
2023-01-08T05:18:10.788Z,76.30
2023-01-08T05:20:33.558Z,75.30
2023-01-08T05:22:56.518Z,75.82
2023-01-08T05:25:19.474Z,71.32
2023-01-08T05:27:42.033Z,79.80
2023-01-08T05:30:05.289Z,82.47
2023-01-08T05:32:28.357Z,75.53
2023-01-08T05:34:51.251Z,75.28
2023-01-08T05:37:13.866Z,74.82
2023-01-08T05:39:37.423Z,76.93
2023-01-08T05:41:59.976Z,74.97
2023-01-08T05:44:22.615Z,73.57
2023-01-08T05:46:45.486Z,74.18
2023-01-08T05:49:08.268Z,78.07
2023-01-08T05:51:30.907Z,74.80
2023-01-08T05:53:53.659Z,71.07
2023-01-08T05:56:16.308Z,74.22
2023-01-08T05:58:39.296Z,71.57
2023-01-08T06:01:06.357Z,77.22
2023-01-08T06:03:28.965Z,74.80
2023-01-08T06:05:51.462Z,74.87
2023-01-08T06:08:16.059Z,81.85
2023-01-08T06:10:39.183Z,76.32
2023-01-08T06:13:01.827Z,67.22
2023-01-08T06:15:24.427Z,71.15
2023-01-08T06:17:47.273Z,63.47
2023-01-08T06:20:11.193Z,71.78
2023-01-08T06:22:34.553Z,72.45
2023-01-08T06:24:57.155Z,75.70
2023-01-08T06:27:21.266Z,76.93
2023-01-08T06:29:43.895Z,73.73
2023-01-08T06:32:06.458Z,70.18
2023-01-08T06:34:28.976Z,76.60
2023-01-08T06:36:51.570Z,72.05
2023-01-08T06:39:14.413Z,75.75
2023-01-08T06:41:37.042Z,87.60
2023-01-08T06:43:59.575Z,80.82
2023-01-08T06:46:22.309Z,74.70
2023-01-08T06:48:45.357Z,75.95
2023-01-08T06:51:08.517Z,70.57
2023-01-08T06:53:31.581Z,70.53
2023-01-08T06:55:57.118Z,73.85
2023-01-08T06:58:19.874Z,70.32
2023-01-08T07:00:43.519Z,68.90
2023-01-08T07:03:06.954Z,77.63
2023-01-08T07:05:29.796Z,71.23
2023-01-08T07:07:52.657Z,66.45
2023-01-08T07:10:15.446Z,67.38
2023-01-08T07:12:38.303Z,67.95
2023-01-08T07:15:02.206Z,61.67
2023-01-08T07:17:25.319Z,64.77
2023-01-08T07:19:48.088Z,61.08
2023-01-08T07:22:10.950Z,62.60
2023-01-08T07:24:33.622Z,63.50
2023-01-08T07:26:57.054Z,64.43
2023-01-08T07:29:19.834Z,66.37
2023-01-08T07:31:42.469Z,66.32
2023-01-08T07:34:05.275Z,64.65
2023-01-08T07:36:27.914Z,56.05
2023-01-08T07:38:50.964Z,57.47
2023-01-08T07:41:13.617Z,55.20
2023-01-08T07:43:36.255Z,60.28
2023-01-08T07:46:01.572Z,65.45
2023-01-08T07:48:24.137Z,55.40
2023-01-08T07:50:47.234Z,57.20
2023-01-08T07:53:11.024Z,56.53
2023-01-08T07:55:33.678Z,55.97
2023-01-08T07:57:56.344Z,58.78
2023-01-08T08:00:19.387Z,53.28
2023-01-08T08:02:42.269Z,52.13
2023-01-08T08:05:05.392Z,52.17
2023-01-08T08:07:31.198Z,55.58
2023-01-08T08:09:54.249Z,52.13
2023-01-08T08:12:17.096Z,52.10
2023-01-08T08:14:39.764Z,51.63
2023-01-08T08:17:02.401Z,47.43
2023-01-08T08:19:24.987Z,51.45
2023-01-08T08:21:47.728Z,48.20
2023-01-08T08:24:10.339Z,49.33
2023-01-08T08:26:32.959Z,49.50
2023-01-08T08:28:55.742Z,50.27
2023-01-08T08:31:18.346Z,47.92
2023-01-08T08:33:41.106Z,46.20
2023-01-08T08:36:03.936Z,47.53
2023-01-08T08:38:27.003Z,47.00
2023-01-08T08:40:49.753Z,46.13
2023-01-08T08:43:13.240Z,47.63
2023-01-08T08:45:36.627Z,49.95
2023-01-08T08:47:59.815Z,45.00
2023-01-08T08:50:23.129Z,45.35
2023-01-08T08:52:46.006Z,43.10
2023-01-08T08:55:13.187Z,45.63
2023-01-08T08:57:35.702Z,44.53
2023-01-08T09:00:00.376Z,40.40
2023-01-08T09:02:23.826Z,39.03
2023-01-08T09:04:46.495Z,41.77
2023-01-08T09:07:09.106Z,41.00
2023-01-08T09:09:31.925Z,42.55
2023-01-08T09:11:54.853Z,43.35
2023-01-08T09:14:17.778Z,42.58
2023-01-08T09:16:40.646Z,44.50
2023-01-08T09:19:04.469Z,41.65
2023-01-08T09:21:27.406Z,43.45
2023-01-08T09:23:50.202Z,42.53
2023-01-08T09:26:13.091Z,44.35
2023-01-08T09:28:36.265Z,40.83
2023-01-08T09:31:03.956Z,41.40
2023-01-08T09:33:26.607Z,44.38
2023-01-08T09:35:49.171Z,43.28
2023-01-08T09:38:12.151Z,42.60
2023-01-08T09:40:55.698Z,40.77
2023-01-08T09:43:20.760Z,42.05
2023-01-08T09:45:45.772Z,41.40
2023-01-08T09:48:14.293Z,39.38
2023-01-08T09:50:37.808Z,39.70
2023-01-08T09:53:01.415Z,40.03
2023-01-08T09:55:23.934Z,37.90
2023-01-08T09:57:48.180Z,34.08
2023-01-08T10:00:15.378Z,39.40
2023-01-08T10:02:40.540Z,36.80
2023-01-08T10:05:11.301Z,37.53
2023-01-08T10:07:33.923Z,33.80
2023-01-08T10:09:56.892Z,33.75
2023-01-08T10:12:29.217Z,33.38
2023-01-08T10:14:54.393Z,34.85
2023-01-08T10:17:28.296Z,32.57
2023-01-08T10:19:51.091Z,32.60
2023-01-08T10:22:19.791Z,32.45
2023-01-08T10:24:43.376Z,30.98
2023-01-08T10:27:13.925Z,31.45
2023-01-08T10:29:36.992Z,30.70
2023-01-08T10:32:09.367Z,29.75
2023-01-08T10:34:33.493Z,27.95
2023-01-08T10:36:56.507Z,27.02
2023-01-08T10:39:24.025Z,27.63
2023-01-08T10:41:48.653Z,25.97
2023-01-08T10:44:17.549Z,24.98
2023-01-08T10:46:50.400Z,26.85
2023-01-08T10:49:22.838Z,25.98
2023-01-08T10:51:53.382Z,26.10
2023-01-08T10:54:35.610Z,24.10
2023-01-08T10:57:00.178Z,24.23
2023-01-08T10:59:24.870Z,25.73
2023-01-08T11:01:48.689Z,23.67
2023-01-08T11:04:28.474Z,24.45
2023-01-08T11:06:51.859Z,24.37
2023-01-08T11:09:22.974Z,20.52
2023-01-08T11:11:45.976Z,22.92
2023-01-08T11:14:29.273Z,21.20
2023-01-08T11:16:53.182Z,22.95
2023-01-08T11:19:28.945Z,22.83
2023-01-08T11:22:03.231Z,22.85
2023-01-08T11:24:38.601Z,24.27
2023-01-08T11:27:08.915Z,23.02
2023-01-08T11:30:06.953Z,23.58
2023-01-08T11:32:55.016Z,21.53
2023-01-08T11:35:32.945Z,22.20
2023-01-08T11:37:59.632Z,22.38
2023-01-08T11:40:31.234Z,22.80
2023-01-08T11:43:35.108Z,22.02
2023-01-08T11:46:03.726Z,23.83
2023-01-08T11:48:48.247Z,21.45
2023-01-08T11:51:41.912Z,21.73
2023-01-08T11:54:16.356Z,21.55
2023-01-08T11:56:59.474Z,21.27
2023-01-08T11:59:47.903Z,22.07
2023-01-08T12:02:29.342Z,21.20
2023-01-08T12:05:12.611Z,21.85
2023-01-08T12:07:42.418Z,22.25
2023-01-08T12:10:33.934Z,21.73
2023-01-08T12:13:02.322Z,24.37
2023-01-08T12:15:43.748Z,21.92
2023-01-08T12:18:27.953Z,22.40
2023-01-08T12:21:14.347Z,24.92
2023-01-08T12:23:52.954Z,23.60
2023-01-08T12:26:44.652Z,24.50
2023-01-08T12:29:39.206Z,22.83
2023-01-08T12:32:29.186Z,25.85
2023-01-08T12:35:08.981Z,23.88
2023-01-08T12:38:13.058Z,24.48
2023-01-08T12:40:41.555Z,22.37
2023-01-08T12:43:09.106Z,25.98
2023-01-08T12:45:45.998Z,22.88
2023-01-08T12:48:15.785Z,24.27
2023-01-08T12:50:52.004Z,27.42
2023-01-08T12:53:32.076Z,24.17
2023-01-08T12:56:12.784Z,26.50
2023-01-08T12:58:38.714Z,25.13
2023-01-08T13:01:25.517Z,26.25
2023-01-08T13:03:49.331Z,25.30
2023-01-08T13:06:15.780Z,27.07
2023-01-08T13:08:39.863Z,24.95
2023-01-08T13:11:03.545Z,26.60
2023-01-08T13:13:32.504Z,24.77
2023-01-08T13:16:11.961Z,25.88
2023-01-08T13:18:35.151Z,26.70
2023-01-08T13:21:00.487Z,28.10
2023-01-08T13:23:29.650Z,26.85
2023-01-08T13:25:54.194Z,24.23
2023-01-08T13:28:28.894Z,29.55
2023-01-08T13:30:52.148Z,27.77
2023-01-08T13:33:36.206Z,25.55
2023-01-08T13:36:18.424Z,28.10
2023-01-08T13:38:41.973Z,26.20
2023-01-08T13:41:04.931Z,27.33
2023-01-08T13:43:38.821Z,26.13
2023-01-08T13:46:01.427Z,27.75
2023-01-08T13:48:29.664Z,25.02
2023-01-08T13:50:53.166Z,26.33
2023-01-08T13:53:15.829Z,28.02
2023-01-08T13:55:41.736Z,27.80
2023-01-08T13:58:10.100Z,27.63
2023-01-08T14:00:43.002Z,27.17
2023-01-08T14:03:23.820Z,28.52
2023-01-08T14:05:46.475Z,27.60
2023-01-08T14:08:22.697Z,26.33
2023-01-08T14:10:45.477Z,26.65
2023-01-08T14:13:09.375Z,26.92
2023-01-08T14:15:34.626Z,25.15
2023-01-08T14:17:57.864Z,26.98
2023-01-08T14:20:34.273Z,24.97
2023-01-08T14:22:57.362Z,25.40
2023-01-08T14:25:20.322Z,27.35
2023-01-08T14:27:42.912Z,24.60
2023-01-08T14:30:15.917Z,23.50
2023-01-08T14:32:43.637Z,24.90
2023-01-08T14:35:09.417Z,23.58
2023-01-08T14:37:32.120Z,23.45
2023-01-08T14:39:55.391Z,24.08
2023-01-08T14:42:44.298Z,21.67
2023-01-08T14:45:14.918Z,22.00
2023-01-08T14:47:45.736Z,22.17
2023-01-08T14:50:18.281Z,22.38
2023-01-08T14:52:41.095Z,22.40
2023-01-08T14:55:04.313Z,21.48
2023-01-08T14:57:28.143Z,24.57
2023-01-08T15:00:01.768Z,23.25
2023-01-08T15:02:31.480Z,22.25
2023-01-08T15:05:17.619Z,23.00
2023-01-08T15:07:44.150Z,22.10
2023-01-08T15:10:31.806Z,22.20
2023-01-08T15:12:57.777Z,19.98
2023-01-08T15:15:24.456Z,21.58
2023-01-08T15:17:47.107Z,23.33
2023-01-08T15:20:17.473Z,22.73
2023-01-08T15:22:45.566Z,22.93
2023-01-08T15:25:25.012Z,21.52
2023-01-08T15:28:15.201Z,21.23
2023-01-08T15:30:43.894Z,18.60
2023-01-08T15:33:27.354Z,18.83
2023-01-08T15:35:50.602Z,16.80
2023-01-08T15:38:13.730Z,18.27
2023-01-08T15:40:36.444Z,16.48
2023-01-08T15:43:11.263Z,17.13
2023-01-08T15:45:33.969Z,16.70
2023-01-08T15:47:56.762Z,17.03
2023-01-08T15:50:20.598Z,16.40
2023-01-08T15:52:44.088Z,17.15
2023-01-08T15:55:07.703Z,13.93
2023-01-08T15:57:30.620Z,15.57
2023-01-08T15:59:53.275Z,15.90
2023-01-08T16:02:16.555Z,13.68
2023-01-08T16:04:39.678Z,14.07
2023-01-08T16:07:02.387Z,14.63
2023-01-08T16:09:25.029Z,14.52
2023-01-08T16:11:47.632Z,14.53
2023-01-08T16:14:11.176Z,15.15
2023-01-08T16:16:34.020Z,14.35
2023-01-08T16:18:56.696Z,14.85
2023-01-08T16:21:19.309Z,15.48
2023-01-08T16:23:42.366Z,14.47
2023-01-08T16:26:10.857Z,14.75
2023-01-08T16:28:33.564Z,15.25
2023-01-08T16:30:56.198Z,16.05
2023-01-08T16:33:18.851Z,16.02
2023-01-08T16:35:41.341Z,16.97
2023-01-08T16:38:03.885Z,16.60
2023-01-08T16:40:26.474Z,15.65
2023-01-08T16:42:49.160Z,15.68
2023-01-08T16:45:11.950Z,16.63
2023-01-08T16:47:39.351Z,16.40
2023-01-08T16:50:02.468Z,15.10
2023-01-08T16:52:26.603Z,16.13
2023-01-08T16:54:49.186Z,15.77
2023-01-08T16:57:11.967Z,14.40
2023-01-08T16:59:34.712Z,16.40
2023-01-08T17:01:57.432Z,16.60
2023-01-08T17:04:20.824Z,15.55
2023-01-08T17:06:43.716Z,16.02
2023-01-08T17:09:10.269Z,14.75
2023-01-08T17:11:34.734Z,16.60
2023-01-08T17:13:58.594Z,16.63
2023-01-08T17:16:21.247Z,16.45
2023-01-08T17:18:44.923Z,16.52
2023-01-08T17:21:09.476Z,16.67
2023-01-08T17:23:32.345Z,17.93
2023-01-08T17:25:59.878Z,17.63
2023-01-08T17:28:30.927Z,17.85
2023-01-08T17:31:01.119Z,17.00
2023-01-08T17:33:23.786Z,17.25
2023-01-08T17:35:46.758Z,16.73
2023-01-08T17:38:09.370Z,18.75
2023-01-08T17:40:32.126Z,16.60
2023-01-08T17:42:55.731Z,17.77
2023-01-08T17:45:18.378Z,17.08
2023-01-08T17:47:41.613Z,17.33
2023-01-08T17:50:05.942Z,16.58
2023-01-08T17:52:28.614Z,17.92
2023-01-08T17:54:52.296Z,16.85
2023-01-08T17:57:16.856Z,16.15
2023-01-08T17:59:39.646Z,22.10
2023-01-08T18:02:02.650Z,17.10
2023-01-08T18:04:25.983Z,17.02
2023-01-08T18:06:49.061Z,17.88
2023-01-08T18:09:12.719Z,17.30
2023-01-08T18:11:35.897Z,15.30
2023-01-08T18:14:00.605Z,16.73
2023-01-08T18:16:24.194Z,17.60
2023-01-08T18:18:47.120Z,16.83
2023-01-08T18:21:10.196Z,17.23
2023-01-08T18:23:33.670Z,16.20
2023-01-08T18:25:56.504Z,20.63
2023-01-08T18:28:19.385Z,18.42
2023-01-08T18:30:42.985Z,19.00
2023-01-08T18:33:06.112Z,19.02
2023-01-08T18:35:29.140Z,21.33
2023-01-08T18:37:51.795Z,19.48
2023-01-08T18:40:14.681Z,18.45
2023-01-08T18:42:37.369Z,17.52
2023-01-08T18:45:00.665Z,21.48
2023-01-08T18:47:25.310Z,19.93
2023-01-08T18:49:48.327Z,17.25
2023-01-08T18:52:14.031Z,16.80
2023-01-08T18:54:36.746Z,18.08
2023-01-08T18:56:59.576Z,17.80
2023-01-08T18:59:22.267Z,19.97
2023-01-08T19:01:44.961Z,20.08
2023-01-08T19:04:15.918Z,17.10
2023-01-08T19:06:38.719Z,18.08
2023-01-08T19:09:01.646Z,18.77
2023-01-08T19:11:24.508Z,18.30
2023-01-08T19:13:47.566Z,16.80
2023-01-08T19:16:12.876Z,18.95
2023-01-08T19:18:36.512Z,16.65
2023-01-08T19:21:00.165Z,18.35
2023-01-08T19:23:22.988Z,18.27
2023-01-08T19:25:45.952Z,16.67
2023-01-08T19:28:09.074Z,20.38
2023-01-08T19:30:32.167Z,18.05
2023-01-08T19:32:56.049Z,17.73
2023-01-08T19:35:18.858Z,18.30
2023-01-08T19:37:41.556Z,16.70
2023-01-08T19:40:06.298Z,17.63
2023-01-08T19:42:48.014Z,19.27
2023-01-08T19:45:11.621Z,19.50
2023-01-08T19:47:34.289Z,17.43
2023-01-08T19:49:57.325Z,17.83
2023-01-08T19:52:20.332Z,18.80
2023-01-08T19:54:43.588Z,18.70
2023-01-08T19:57:06.413Z,18.25
2023-01-08T19:59:29.455Z,17.37
2023-01-08T20:01:52.340Z,17.10
2023-01-08T20:04:15.165Z,18.50
2023-01-08T20:06:37.992Z,20.67
2023-01-08T20:09:02.129Z,18.17
2023-01-08T20:11:25.766Z,19.40
2023-01-08T20:13:49.017Z,19.10
2023-01-08T20:16:15.413Z,17.20
2023-01-08T20:18:38.511Z,17.45
2023-01-08T20:21:16.655Z,18.58
2023-01-08T20:23:39.840Z,18.70
2023-01-08T20:26:06.440Z,19.13
2023-01-08T20:28:29.398Z,17.98
2023-01-08T20:30:52.578Z,19.83
2023-01-08T20:33:17.672Z,18.38
2023-01-08T20:35:40.695Z,20.17
2023-01-08T20:38:03.484Z,19.42
2023-01-08T20:40:26.122Z,19.25
2023-01-08T20:42:48.939Z,19.65
2023-01-08T20:45:11.910Z,16.90
2023-01-08T20:47:35.450Z,20.77
2023-01-08T20:49:58.227Z,20.25
2023-01-08T20:52:20.956Z,18.92
2023-01-08T20:54:43.701Z,18.83
2023-01-08T20:57:06.462Z,18.85
2023-01-08T20:59:29.443Z,19.40
2023-01-08T21:01:52.588Z,20.52
2023-01-08T21:04:15.492Z,19.48
2023-01-08T21:06:38.931Z,19.13
2023-01-08T21:09:06.831Z,18.45
2023-01-08T21:11:30.679Z,17.60
2023-01-08T21:13:55.285Z,18.48
2023-01-08T21:16:22.928Z,19.05
2023-01-08T21:18:48.816Z,21.92
2023-01-08T21:21:13.163Z,18.20
2023-01-08T21:23:35.809Z,20.77
2023-01-08T21:26:00.127Z,18.58
2023-01-08T21:28:23.891Z,20.52
2023-01-08T21:30:46.588Z,20.60
2023-01-08T21:33:09.250Z,18.92
2023-01-08T21:35:33.634Z,21.43
2023-01-08T21:37:56.148Z,22.27
2023-01-08T21:40:19.215Z,18.67
2023-01-08T21:43:00.675Z,22.45
2023-01-08T21:45:25.934Z,21.77
2023-01-08T21:47:48.505Z,21.77
2023-01-08T21:50:11.918Z,21.42
2023-01-08T21:52:53.160Z,21.70
2023-01-08T21:55:17.406Z,20.35
2023-01-08T21:57:40.094Z,21.42
2023-01-08T22:00:02.770Z,20.83
2023-01-08T22:02:27.554Z,22.02
2023-01-08T22:04:53.443Z,21.02
2023-01-08T22:07:16.688Z,21.48
2023-01-08T22:09:39.367Z,21.23
2023-01-08T22:12:02.612Z,20.80
2023-01-08T22:14:25.287Z,20.98
2023-01-08T22:16:47.938Z,21.33
2023-01-08T22:19:11.089Z,21.33
2023-01-08T22:21:34.002Z,19.88
2023-01-08T22:23:57.396Z,22.47
2023-01-08T22:26:20.325Z,22.38
2023-01-08T22:28:43.485Z,23.83
2023-01-08T22:31:11.885Z,23.25
2023-01-08T22:33:34.669Z,21.55
2023-01-08T22:35:57.384Z,23.23
2023-01-08T22:38:20.036Z,24.33
2023-01-08T22:40:43.258Z,25.50
2023-01-08T22:43:06.166Z,25.85
2023-01-08T22:45:29.139Z,25.58
2023-01-08T22:47:51.828Z,27.20
2023-01-08T22:50:14.690Z,26.90
2023-01-08T22:52:37.383Z,32.20
2023-01-08T22:54:59.981Z,27.38
2023-01-08T22:57:22.605Z,29.13
2023-01-08T22:59:45.203Z,29.87
2023-01-08T23:02:07.798Z,28.35
2023-01-08T23:04:30.435Z,31.70
2023-01-08T23:06:53.131Z,27.75
2023-01-08T23:09:15.888Z,25.02
2023-01-08T23:11:38.774Z,28.43
2023-01-08T23:14:01.651Z,27.67
2023-01-08T23:16:25.519Z,24.52
2023-01-08T23:18:48.218Z,26.67
2023-01-08T23:21:16.600Z,23.80
2023-01-08T23:23:39.813Z,25.93
2023-01-08T23:26:04.804Z,24.63
2023-01-08T23:28:27.429Z,25.27
2023-01-08T23:30:50.051Z,24.88
2023-01-08T23:33:12.629Z,23.27
2023-01-08T23:35:35.414Z,23.37
2023-01-08T23:37:58.235Z,26.17
2023-01-08T23:40:20.960Z,24.50
2023-01-08T23:42:43.744Z,23.45
2023-01-08T23:45:06.916Z,22.65
2023-01-08T23:47:29.507Z,23.73
2023-01-08T23:49:52.181Z,26.02
2023-01-08T23:52:14.856Z,26.52
2023-01-08T23:54:37.541Z,24.08
2023-01-08T23:57:00.172Z,23.00
2023-01-08T23:59:22.870Z,23.80
